Terminal Aerodrome Forecast
Issued by NWS

Home | Current Version | Previous Version | Text Only | Print | Product List | Glossary On
Versions: 1 2 3 4 5 6 7 8 9 10 11 12 13 14
000
FTUS42 KMLB 011733
TAFSUA
TAF
KSUA 011733Z 0118/0218 20010G16KT P6SM VCSH SCT025 BKN040
      TEMPO 0118/0120 3SM TSRA BKN025CB BKN035
     FM020000 20006KT P6SM VCSH FEW025 BKN150 BKN250=

USA.gov is the U.S. government's official web portal to all federal, state and local government web resources and services.